Dillon, Colorado
Current Conditions -  °F | °C
As of 1:55 PM on Tuesday 25 Nov 2014 (Local Time) from KCCU Reporting Station
Overcast Overcast  
Wind Chill: -21°   Ceiling: 100
Heat Index: -10°   Visibility: NA
Dew Point: -13°   Wind: 25mph
Humidity: 79%   Direction: 270°W
Pressure: 30.08"   Gusts: 33mph
Location:  39.63°N, 106.04°W
Report Text: KCCU 252055Z AUTO 27022G29KT OVC001 M10/M13 A3008 RMK AO2 PWINO
Loading
Personal Weather Stations






























Interactive Weather Map New forecast layout! Learn more

10-Day Weather Forecast

Advertisements
Track Severe Weather on mobile